createdAt,value
2023-07-15T00:01:29.049Z,19.38
2023-07-15T00:03:56.106Z,19.37
2023-07-15T00:06:24.500Z,19.38
2023-07-15T00:08:51.986Z,19.45
2023-07-15T00:11:32.510Z,19.51
2023-07-15T00:14:00.033Z,19.50
2023-07-15T00:16:28.174Z,19.41
2023-07-15T00:18:55.213Z,19.43
2023-07-15T00:21:27.135Z,19.43
2023-07-15T00:23:58.908Z,19.41
2023-07-15T00:26:31.183Z,19.40
2023-07-15T00:28:58.580Z,19.41
2023-07-15T00:31:27.643Z,19.41
2023-07-15T00:33:54.323Z,19.41
2023-07-15T00:36:20.877Z,19.37
2023-07-15T00:38:47.559Z,19.39
2023-07-15T00:41:24.372Z,19.39
2023-07-15T00:43:59.643Z,19.38
2023-07-15T00:47:04.371Z,19.39
2023-07-15T00:49:34.247Z,19.34
2023-07-15T00:52:05.933Z,19.28
2023-07-15T00:54:38.200Z,19.25
2023-07-15T00:57:07.434Z,19.25
2023-07-15T00:59:34.812Z,19.20
2023-07-15T01:02:01.711Z,19.23
2023-07-15T01:04:28.110Z,19.20
2023-07-15T01:06:55.056Z,19.17
2023-07-15T01:09:23.557Z,19.13
2023-07-15T01:11:50.211Z,19.10
2023-07-15T01:14:16.557Z,19.08
2023-07-15T01:16:43.129Z,19.03
2023-07-15T01:19:10.095Z,19.03
2023-07-15T01:21:36.861Z,18.98
2023-07-15T01:24:04.389Z,18.92
2023-07-15T01:26:32.757Z,18.96
2023-07-15T01:28:59.586Z,18.88
2023-07-15T01:31:28.082Z,18.92
2023-07-15T01:33:54.766Z,18.92
2023-07-15T01:36:21.177Z,18.92
2023-07-15T01:38:47.573Z,18.89
2023-07-15T01:41:14.180Z,18.86
2023-07-15T01:43:40.542Z,18.82
2023-07-15T01:46:06.985Z,18.79
2023-07-15T01:48:34.157Z,18.81
2023-07-15T01:51:00.872Z,18.77
2023-07-15T01:53:27.222Z,18.77
2023-07-15T01:55:53.649Z,18.70
2023-07-15T01:58:22.104Z,18.65
2023-07-15T02:00:49.701Z,18.63
2023-07-15T02:03:16.588Z,18.57
2023-07-15T02:05:43.638Z,18.54
2023-07-15T02:08:10.276Z,18.50
2023-07-15T02:10:37.015Z,18.52
2023-07-15T02:13:03.684Z,18.45
2023-07-15T02:15:30.093Z,18.39
2023-07-15T02:17:57.328Z,18.34
2023-07-15T02:20:23.828Z,18.36
2023-07-15T02:22:50.248Z,18.31
2023-07-15T02:25:17.908Z,18.29
2023-07-15T02:27:44.555Z,18.30
2023-07-15T02:30:11.456Z,18.20
2023-07-15T02:32:43.247Z,18.22
2023-07-15T02:35:11.493Z,18.13
2023-07-15T02:37:42.310Z,18.16
2023-07-15T02:40:11.159Z,18.12
2023-07-15T02:42:38.705Z,18.10
2023-07-15T02:45:07.206Z,18.04
2023-07-15T02:47:34.730Z,18.02
2023-07-15T02:50:06.322Z,17.98
2023-07-15T02:52:34.171Z,17.97
2023-07-15T02:55:01.684Z,17.94
2023-07-15T02:57:28.935Z,17.97
2023-07-15T02:59:57.220Z,17.93
2023-07-15T03:02:24.921Z,17.90
2023-07-15T03:04:51.822Z,17.93
2023-07-15T03:07:19.160Z,17.90
2023-07-15T03:09:48.662Z,17.92
2023-07-15T03:12:15.359Z,17.89
2023-07-15T03:14:44.612Z,17.83
2023-07-15T03:17:12.072Z,17.80
2023-07-15T03:19:38.937Z,17.81
2023-07-15T03:22:06.541Z,17.82
2023-07-15T03:24:35.034Z,17.77
2023-07-15T03:27:01.489Z,17.76
2023-07-15T03:29:27.881Z,17.70
2023-07-15T03:31:54.387Z,17.70
2023-07-15T03:34:21.045Z,17.67
2023-07-15T03:36:47.460Z,17.63
2023-07-15T03:39:13.795Z,17.61
2023-07-15T03:41:40.460Z,17.60
2023-07-15T03:44:07.104Z,17.57
2023-07-15T03:46:35.382Z,17.61
2023-07-15T03:49:02.013Z,17.57
2023-07-15T03:51:28.393Z,17.53
2023-07-15T03:53:54.791Z,17.54
2023-07-15T03:56:21.350Z,17.55
2023-07-15T03:58:48.406Z,17.61
2023-07-15T04:01:14.868Z,17.65
2023-07-15T04:03:41.250Z,17.66
2023-07-15T04:06:08.786Z,17.71
2023-07-15T04:08:35.689Z,17.73
2023-07-15T04:11:02.459Z,17.72
2023-07-15T04:13:29.044Z,17.79
2023-07-15T04:15:55.679Z,17.79
2023-07-15T04:18:22.514Z,17.80
2023-07-15T04:20:49.257Z,17.75
2023-07-15T04:23:15.968Z,17.77
2023-07-15T04:25:42.418Z,17.72
2023-07-15T04:28:09.411Z,17.73
2023-07-15T04:30:36.565Z,17.71
2023-07-15T04:33:04.055Z,17.76
2023-07-15T04:35:30.547Z,17.78
2023-07-15T04:37:56.969Z,17.69
2023-07-15T04:40:23.317Z,17.70
2023-07-15T04:42:49.654Z,17.71
2023-07-15T04:45:16.115Z,17.75
2023-07-15T04:47:42.865Z,17.73
2023-07-15T04:50:10.104Z,17.75
2023-07-15T04:52:36.536Z,17.81
2023-07-15T04:55:04.063Z,17.98
2023-07-15T04:57:30.748Z,18.09
2023-07-15T04:59:57.396Z,18.20
2023-07-15T05:02:23.925Z,18.42
2023-07-15T05:04:50.323Z,18.45
2023-07-15T05:07:16.982Z,18.43
2023-07-15T05:09:44.080Z,18.62
2023-07-15T05:12:12.104Z,18.79
2023-07-15T05:14:38.570Z,18.90
2023-07-15T05:17:07.035Z,19.10
2023-07-15T05:19:33.421Z,19.39
2023-07-15T05:21:59.822Z,19.57
2023-07-15T05:24:29.914Z,19.65
2023-07-15T05:26:57.163Z,19.77
2023-07-15T05:29:24.101Z,19.96
2023-07-15T05:31:51.494Z,20.04
2023-07-15T05:34:18.230Z,20.20
2023-07-15T05:36:44.631Z,20.29
2023-07-15T05:39:12.682Z,20.13
2023-07-15T05:41:39.178Z,19.98
2023-07-15T05:44:05.713Z,20.18
2023-07-15T05:46:32.311Z,20.25
2023-07-15T05:48:59.854Z,20.27
2023-07-15T05:51:26.319Z,20.32
2023-07-15T05:53:52.720Z,20.34
2023-07-15T05:56:19.179Z,20.34
2023-07-15T05:58:45.568Z,20.44
2023-07-15T06:01:12.339Z,20.48
2023-07-15T06:03:39.683Z,20.69
2023-07-15T06:06:06.352Z,20.85
2023-07-15T06:08:33.215Z,20.80
2023-07-15T06:10:59.679Z,20.65
2023-07-15T06:13:27.884Z,20.78
2023-07-15T06:15:56.906Z,21.01
2023-07-15T06:18:23.284Z,21.29
2023-07-15T06:20:51.518Z,21.50
2023-07-15T06:23:17.854Z,21.50
2023-07-15T06:25:44.422Z,21.63
2023-07-15T06:28:10.891Z,21.91
2023-07-15T06:30:37.305Z,22.13
2023-07-15T06:33:04.096Z,22.35
2023-07-15T06:35:30.542Z,22.37
2023-07-15T06:37:57.181Z,22.40
2023-07-15T06:40:23.818Z,22.44
2023-07-15T06:42:50.402Z,22.60
2023-07-15T06:45:22.587Z,22.79
2023-07-15T06:47:49.127Z,22.93
2023-07-15T06:50:16.400Z,23.06
2023-07-15T06:52:43.027Z,23.11
2023-07-15T06:55:09.690Z,23.09
2023-07-15T06:57:36.302Z,23.10
2023-07-15T07:00:03.057Z,23.08
2023-07-15T07:02:29.549Z,23.46
2023-07-15T07:04:56.258Z,23.47
2023-07-15T07:07:24.461Z,23.64
2023-07-15T07:09:50.918Z,23.83
2023-07-15T07:12:18.925Z,23.85
2023-07-15T07:14:45.630Z,23.82
2023-07-15T07:17:12.019Z,23.95
2023-07-15T07:19:38.661Z,24.10
2023-07-15T07:22:05.421Z,24.42
2023-07-15T07:24:32.114Z,24.58
2023-07-15T07:26:59.123Z,24.66
2023-07-15T07:29:25.664Z,24.63
2023-07-15T07:31:53.534Z,24.67
2023-07-15T07:34:20.118Z,24.67
2023-07-15T07:36:46.599Z,24.61
2023-07-15T07:39:14.269Z,24.73
2023-07-15T07:41:41.648Z,24.77
2023-07-15T07:44:09.997Z,24.85
2023-07-15T07:46:36.760Z,24.92
2023-07-15T07:49:03.536Z,24.94
2023-07-15T07:51:30.272Z,25.11
2023-07-15T07:53:57.206Z,25.18
2023-07-15T07:56:24.708Z,25.21
2023-07-15T07:58:58.375Z,25.31
2023-07-15T08:01:28.173Z,25.26
2023-07-15T08:03:55.695Z,25.54
2023-07-15T08:06:22.896Z,25.64
2023-07-15T08:08:49.589Z,25.99
2023-07-15T08:11:16.438Z,26.10
2023-07-15T08:13:43.201Z,26.20
2023-07-15T08:16:32.212Z,26.11
2023-07-15T08:18:59.567Z,26.01
2023-07-15T08:21:27.973Z,26.18
2023-07-15T08:23:55.235Z,26.38
2023-07-15T08:26:22.580Z,26.36
2023-07-15T08:28:50.781Z,26.28
2023-07-15T08:31:18.147Z,26.47
2023-07-15T08:33:44.910Z,26.54
2023-07-15T08:36:11.425Z,26.76
2023-07-15T08:38:38.124Z,26.76
2023-07-15T08:41:04.696Z,27.04
2023-07-15T08:43:32.053Z,26.96
2023-07-15T08:46:32.296Z,26.86
2023-07-15T08:49:00.884Z,26.85
2023-07-15T08:51:37.876Z,27.04
2023-07-15T08:54:07.163Z,27.12
2023-07-15T08:56:35.766Z,27.04
2023-07-15T08:59:07.260Z,27.15
2023-07-15T09:01:36.396Z,27.09
2023-07-15T09:04:03.192Z,27.12
2023-07-15T09:06:29.774Z,27.56
2023-07-15T09:08:57.289Z,27.67
2023-07-15T09:11:23.694Z,27.75
2023-07-15T09:13:50.155Z,27.71
2023-07-15T09:16:17.906Z,27.70
2023-07-15T09:18:44.648Z,27.79
2023-07-15T09:21:16.678Z,28.12
2023-07-15T09:23:45.829Z,27.94
2023-07-15T09:26:13.679Z,28.24
2023-07-15T09:28:44.489Z,28.27
2023-07-15T09:31:11.191Z,28.06
2023-07-15T09:33:40.725Z,28.01
2023-07-15T09:36:07.940Z,28.26
2023-07-15T09:38:37.295Z,28.52
2023-07-15T09:41:05.472Z,28.49
2023-07-15T09:43:52.145Z,28.70
2023-07-15T09:46:20.676Z,28.72
2023-07-15T09:48:49.659Z,28.72
2023-07-15T09:51:17.585Z,28.72
2023-07-15T09:53:51.875Z,28.91
2023-07-15T09:56:22.791Z,29.12
2023-07-15T09:58:51.427Z,29.33
2023-07-15T10:01:32.826Z,29.33
2023-07-15T10:04:13.805Z,29.42
2023-07-15T10:06:41.025Z,29.27
2023-07-15T10:09:09.358Z,29.19
2023-07-15T10:11:36.706Z,29.32
2023-07-15T10:14:04.711Z,29.14
2023-07-15T10:16:35.644Z,29.42
2023-07-15T10:19:02.801Z,29.70
2023-07-15T10:21:29.488Z,29.52
2023-07-15T10:24:22.438Z,29.73
2023-07-15T10:26:52.445Z,29.75
2023-07-15T10:29:18.851Z,29.81
2023-07-15T10:32:18.979Z,29.76
2023-07-15T10:34:51.689Z,30.02
2023-07-15T10:37:19.761Z,29.94
2023-07-15T10:39:47.147Z,29.92
2023-07-15T10:42:18.313Z,30.11
2023-07-15T10:44:55.501Z,30.13
2023-07-15T10:47:23.201Z,30.11
2023-07-15T10:49:51.928Z,30.10
2023-07-15T10:52:21.116Z,30.31
2023-07-15T10:54:48.320Z,30.25
2023-07-15T10:57:16.576Z,30.66
2023-07-15T10:59:44.436Z,31.07
2023-07-15T11:02:11.902Z,30.93
2023-07-15T11:04:41.055Z,30.65
2023-07-15T11:07:12.094Z,30.54
2023-07-15T11:09:40.902Z,30.88
2023-07-15T11:12:09.723Z,31.10
2023-07-15T11:14:40.441Z,31.07
2023-07-15T11:17:08.198Z,30.95
2023-07-15T11:19:35.067Z,30.64
2023-07-15T11:22:06.740Z,30.82
2023-07-15T11:24:34.408Z,31.01
2023-07-15T11:27:01.936Z,30.68
2023-07-15T11:29:29.243Z,30.52
2023-07-15T11:31:57.614Z,30.33
2023-07-15T11:34:25.846Z,30.20
2023-07-15T11:37:00.232Z,30.13
2023-07-15T11:39:26.825Z,30.07
2023-07-15T11:41:53.646Z,29.95
2023-07-15T11:44:24.473Z,29.92
2023-07-15T11:46:51.477Z,29.92
2023-07-15T11:49:22.591Z,29.97
2023-07-15T11:51:49.706Z,29.90
2023-07-15T11:54:17.858Z,29.70
2023-07-15T11:56:45.279Z,29.40
2023-07-15T11:59:13.391Z,29.34
2023-07-15T12:01:41.889Z,29.18
2023-07-15T12:04:15.441Z,28.93
2023-07-15T12:06:53.754Z,29.02
2023-07-15T12:09:22.621Z,29.11
2023-07-15T12:11:50.526Z,28.83
2023-07-15T12:14:18.240Z,28.81
2023-07-15T12:16:46.182Z,28.65
2023-07-15T12:19:14.892Z,28.65
2023-07-15T12:21:41.491Z,28.73
2023-07-15T12:24:08.612Z,28.79
2023-07-15T12:26:35.491Z,28.97
2023-07-15T12:29:02.134Z,29.06
2023-07-15T12:31:30.017Z,29.13
2023-07-15T12:33:56.719Z,29.32
2023-07-15T12:36:23.370Z,29.47
2023-07-15T12:38:49.932Z,29.55
2023-07-15T12:41:16.462Z,29.27
2023-07-15T12:43:43.150Z,29.33
2023-07-15T12:46:10.012Z,29.26
2023-07-15T12:48:38.072Z,29.25
2023-07-15T12:51:04.435Z,29.20
2023-07-15T12:53:31.018Z,28.97
2023-07-15T12:55:57.727Z,28.87
2023-07-15T12:58:24.461Z,28.83
2023-07-15T13:00:51.458Z,28.98
2023-07-15T13:03:18.659Z,28.96
2023-07-15T13:05:45.445Z,28.91
2023-07-15T13:08:15.011Z,29.00
2023-07-15T13:10:41.968Z,29.06
2023-07-15T13:13:08.550Z,29.06
2023-07-15T13:15:34.975Z,28.88
2023-07-15T13:18:01.431Z,28.84
2023-07-15T13:20:28.698Z,28.71
2023-07-15T13:22:55.383Z,28.67
2023-07-15T13:25:22.241Z,28.48
2023-07-15T13:27:48.645Z,28.54
2023-07-15T13:30:15.181Z,28.45
2023-07-15T13:32:41.680Z,28.29
2023-07-15T13:35:08.786Z,28.22
2023-07-15T13:37:35.223Z,28.33
2023-07-15T13:40:01.651Z,28.33
2023-07-15T13:42:28.352Z,28.16
2023-07-15T13:44:54.696Z,28.15
2023-07-15T13:47:21.215Z,28.34
2023-07-15T13:49:47.924Z,28.21
2023-07-15T13:52:14.344Z,28.32
2023-07-15T13:54:40.791Z,28.18
2023-07-15T13:57:07.325Z,28.25
2023-07-15T13:59:34.079Z,28.14
2023-07-15T14:02:01.208Z,28.09
2023-07-15T14:04:27.918Z,28.07
2023-07-15T14:06:54.466Z,27.87
2023-07-15T14:09:20.819Z,27.63
2023-07-15T14:11:47.230Z,27.55
2023-07-15T14:14:16.027Z,27.37
2023-07-15T14:16:43.186Z,27.23
2023-07-15T14:19:09.755Z,27.20
2023-07-15T14:21:36.255Z,26.93
2023-07-15T14:24:05.850Z,27.01
2023-07-15T14:26:33.203Z,26.86
2023-07-15T14:29:00.315Z,26.87
2023-07-15T14:31:27.185Z,26.80
2023-07-15T14:33:58.140Z,26.72
2023-07-15T14:36:26.622Z,26.69
2023-07-15T14:38:54.005Z,26.73
2023-07-15T14:41:20.683Z,26.98
2023-07-15T14:43:47.179Z,27.26
2023-07-15T14:46:15.177Z,27.46
2023-07-15T14:48:41.873Z,27.70
2023-07-15T14:51:08.840Z,27.66
2023-07-15T14:53:35.272Z,27.94
2023-07-15T14:56:02.288Z,27.73
2023-07-15T14:58:28.834Z,27.63
2023-07-15T15:00:55.275Z,27.80
2023-07-15T15:03:22.149Z,27.83
2023-07-15T15:05:49.088Z,27.63
2023-07-15T15:08:15.533Z,27.32
2023-07-15T15:10:42.548Z,27.27
2023-07-15T15:13:09.345Z,27.25
2023-07-15T15:15:36.018Z,27.22
2023-07-15T15:18:03.091Z,27.39
2023-07-15T15:20:29.809Z,27.54
2023-07-15T15:22:57.043Z,27.47
2023-07-15T15:25:24.142Z,27.52
2023-07-15T15:27:50.537Z,27.63
2023-07-15T15:30:17.155Z,27.39
2023-07-15T15:32:43.823Z,27.05
2023-07-15T15:35:11.438Z,27.12
2023-07-15T15:37:37.831Z,27.20
2023-07-15T15:40:05.007Z,26.94
2023-07-15T15:42:31.416Z,26.70
2023-07-15T15:44:58.643Z,26.77
2023-07-15T15:47:25.849Z,26.96
2023-07-15T15:49:53.122Z,27.07
2023-07-15T15:52:19.937Z,26.75
2023-07-15T15:54:46.520Z,26.82
2023-07-15T15:57:12.985Z,26.84
2023-07-15T15:59:39.402Z,26.82
2023-07-15T16:02:06.033Z,26.77
2023-07-15T16:04:32.479Z,26.54
2023-07-15T16:06:59.881Z,26.35
2023-07-15T16:09:26.466Z,26.25
2023-07-15T16:11:53.034Z,26.34
2023-07-15T16:14:19.448Z,26.32
2023-07-15T16:16:45.851Z,26.11
2023-07-15T16:19:12.513Z,26.05
2023-07-15T16:21:38.999Z,25.90
2023-07-15T16:24:05.534Z,25.95
2023-07-15T16:26:31.931Z,25.82
2023-07-15T16:28:58.498Z,25.85
2023-07-15T16:31:25.172Z,25.65
2023-07-15T16:33:51.594Z,25.59
2023-07-15T16:36:17.978Z,25.64
2023-07-15T16:38:44.342Z,25.55
2023-07-15T16:41:11.023Z,25.37
2023-07-15T16:43:37.509Z,25.33
2023-07-15T16:46:03.991Z,25.42
2023-07-15T16:48:31.689Z,25.26
2023-07-15T16:50:58.287Z,24.98
2023-07-15T16:53:24.707Z,24.84
2023-07-15T16:55:51.297Z,24.65
2023-07-15T16:58:18.687Z,24.56
2023-07-15T17:00:45.267Z,24.34
2023-07-15T17:03:11.778Z,24.23
2023-07-15T17:05:38.334Z,24.38
2023-07-15T17:08:04.690Z,24.34
2023-07-15T17:10:31.116Z,24.39
2023-07-15T17:12:57.471Z,24.53
2023-07-15T17:15:23.859Z,24.79
2023-07-15T17:17:50.477Z,24.78
2023-07-15T17:20:16.997Z,24.86
2023-07-15T17:22:43.651Z,24.86
2023-07-15T17:25:10.130Z,24.95
2023-07-15T17:27:36.849Z,24.93
2023-07-15T17:30:04.993Z,25.32
2023-07-15T17:32:31.621Z,25.51
2023-07-15T17:34:58.244Z,25.42
2023-07-15T17:37:27.903Z,25.30
2023-07-15T17:39:55.639Z,25.43
2023-07-15T17:42:22.128Z,25.20
2023-07-15T17:44:48.770Z,25.16
2023-07-15T17:47:15.395Z,25.18
2023-07-15T17:49:44.046Z,25.26
2023-07-15T17:52:12.491Z,25.37
2023-07-15T17:54:39.469Z,25.32
2023-07-15T17:57:06.198Z,25.71
2023-07-15T17:59:32.805Z,25.84
2023-07-15T18:01:59.215Z,25.89
2023-07-15T18:04:25.656Z,25.73
2023-07-15T18:06:52.261Z,25.61
2023-07-15T18:09:18.991Z,25.48
2023-07-15T18:11:45.377Z,25.37
2023-07-15T18:14:11.795Z,25.21
2023-07-15T18:16:38.410Z,25.00
2023-07-15T18:19:05.310Z,24.94
2023-07-15T18:21:31.897Z,24.90
2023-07-15T18:23:58.545Z,24.71
2023-07-15T18:26:25.321Z,24.76
2023-07-15T18:28:52.092Z,24.80
2023-07-15T18:31:19.626Z,24.70
2023-07-15T18:33:46.424Z,24.62
2023-07-15T18:36:12.840Z,24.55
2023-07-15T18:38:39.392Z,24.61
2023-07-15T18:41:05.855Z,24.65
2023-07-15T18:43:33.096Z,24.73
2023-07-15T18:45:59.528Z,24.75
2023-07-15T18:48:25.899Z,24.64
2023-07-15T18:50:52.234Z,24.43
2023-07-15T18:53:18.652Z,24.45
2023-07-15T18:55:45.112Z,24.54
2023-07-15T18:58:11.492Z,24.50
2023-07-15T19:00:38.431Z,24.50
2023-07-15T19:03:05.128Z,24.53
2023-07-15T19:05:31.598Z,24.46
2023-07-15T19:07:58.589Z,24.41
2023-07-15T19:10:25.211Z,24.50
2023-07-15T19:12:51.945Z,24.38
2023-07-15T19:15:18.595Z,24.24
2023-07-15T19:17:47.343Z,24.15
2023-07-15T19:20:14.374Z,24.06
2023-07-15T19:22:41.620Z,24.03
2023-07-15T19:25:08.661Z,24.02
2023-07-15T19:27:35.246Z,23.99
2023-07-15T19:30:01.692Z,23.99
2023-07-15T19:32:28.306Z,23.96
2023-07-15T19:34:55.016Z,23.87
2023-07-15T19:37:21.696Z,23.87
2023-07-15T19:39:48.066Z,23.85
2023-07-15T19:42:14.724Z,23.83
2023-07-15T19:44:41.187Z,23.88
2023-07-15T19:47:08.212Z,23.87
2023-07-15T19:49:38.250Z,23.77
2023-07-15T19:52:09.035Z,23.67
2023-07-15T19:54:35.972Z,23.65
2023-07-15T19:57:05.085Z,23.74
2023-07-15T19:59:32.136Z,23.70
2023-07-15T20:01:59.417Z,23.62
2023-07-15T20:04:25.954Z,23.53
2023-07-15T20:06:55.307Z,23.57
2023-07-15T20:09:23.462Z,23.62
2023-07-15T20:11:51.611Z,23.49
2023-07-15T20:14:18.629Z,23.52
2023-07-15T20:16:46.706Z,23.44
2023-07-15T20:19:13.297Z,23.37
2023-07-15T20:21:39.794Z,23.32
2023-07-15T20:24:06.796Z,23.39
2023-07-15T20:26:33.618Z,23.36
2023-07-15T20:29:00.092Z,23.34
2023-07-15T20:31:26.757Z,23.42
2023-07-15T20:33:54.284Z,23.29
2023-07-15T20:36:21.040Z,23.31
2023-07-15T20:38:47.711Z,23.27
2023-07-15T20:41:14.644Z,23.26
2023-07-15T20:43:41.522Z,23.30
2023-07-15T20:46:07.970Z,23.17
2023-07-15T20:48:36.307Z,23.16
2023-07-15T20:51:03.009Z,23.12
2023-07-15T20:53:29.462Z,23.05
2023-07-15T20:55:57.315Z,23.01
2023-07-15T20:58:25.221Z,22.94
2023-07-15T21:00:52.170Z,22.95
2023-07-15T21:03:19.662Z,22.93
2023-07-15T21:06:00.293Z,22.92
2023-07-15T21:08:27.754Z,22.90
2023-07-15T21:10:58.325Z,22.88
2023-07-15T21:13:25.287Z,22.89
2023-07-15T21:15:51.997Z,22.86
2023-07-15T21:18:24.430Z,22.78
2023-07-15T21:20:52.420Z,22.74
2023-07-15T21:23:19.475Z,22.78
2023-07-15T21:25:46.712Z,22.73
2023-07-15T21:28:13.236Z,22.70
2023-07-15T21:30:39.653Z,22.67
2023-07-15T21:33:05.991Z,22.61
2023-07-15T21:35:32.670Z,22.60
2023-07-15T21:37:59.122Z,22.63
2023-07-15T21:40:27.458Z,22.62
2023-07-15T21:42:54.506Z,22.66
2023-07-15T21:45:21.416Z,22.70
2023-07-15T21:47:48.096Z,22.73
2023-07-15T21:50:14.640Z,22.81
2023-07-15T21:52:41.298Z,22.73
2023-07-15T21:55:08.315Z,22.67
2023-07-15T21:57:34.996Z,22.70
2023-07-15T22:00:01.482Z,22.45
2023-07-15T22:02:28.152Z,22.33
2023-07-15T22:04:54.602Z,22.08
2023-07-15T22:07:21.094Z,21.87
2023-07-15T22:09:47.417Z,21.63
2023-07-15T22:12:14.021Z,21.32
2023-07-15T22:14:40.613Z,21.16
2023-07-15T22:17:07.128Z,21.03
2023-07-15T22:19:33.677Z,20.99
2023-07-15T22:22:00.376Z,20.98
2023-07-15T22:24:27.177Z,20.88
2023-07-15T22:26:53.562Z,20.76
2023-07-15T22:29:20.279Z,20.63
2023-07-15T22:31:46.715Z,20.54
2023-07-15T22:34:13.235Z,20.43
2023-07-15T22:36:39.758Z,20.31
2023-07-15T22:39:07.903Z,20.09
2023-07-15T22:41:35.774Z,19.78
2023-07-15T22:44:02.137Z,19.70
2023-07-15T22:46:28.515Z,19.63
2023-07-15T22:48:54.934Z,19.68
2023-07-15T22:51:21.633Z,19.51
2023-07-15T22:53:48.318Z,19.37
2023-07-15T22:56:15.452Z,19.33
2023-07-15T22:58:42.333Z,19.22
2023-07-15T23:01:13.290Z,19.22
2023-07-15T23:03:40.977Z,19.25
2023-07-15T23:06:08.281Z,19.05
2023-07-15T23:08:34.804Z,18.80
2023-07-15T23:11:01.246Z,18.84
2023-07-15T23:13:27.873Z,18.76
2023-07-15T23:16:07.129Z,18.72
2023-07-15T23:18:37.990Z,18.64
2023-07-15T23:21:04.387Z,18.74
2023-07-15T23:23:31.032Z,18.84
2023-07-15T23:25:57.474Z,18.64
2023-07-15T23:28:24.079Z,18.51
2023-07-15T23:30:50.838Z,18.68
2023-07-15T23:33:17.274Z,18.71
2023-07-15T23:35:45.030Z,18.79
2023-07-15T23:38:12.164Z,18.77
2023-07-15T23:40:38.847Z,18.78
2023-07-15T23:43:05.292Z,18.70
2023-07-15T23:45:32.915Z,18.63
2023-07-15T23:48:00.134Z,18.61
2023-07-15T23:50:27.332Z,18.49
2023-07-15T23:52:54.072Z,18.54
2023-07-15T23:55:20.981Z,18.57
2023-07-15T23:57:47.434Z,18.64
